AirNav  
 
 1308 users online  

2AL6 Dale O Galer Aerodrome
Irvington, Alabama, USA

GOING TO IRVINGTON?


FAA INFORMATION EFFECTIVE 25 MARCH 2021

Location

FAA Identifier: 2AL6
Lat/Long: 30-29-31.1300N 088-11-50.3100W
30-29.518833N 088-11.838500W
30.4919806,-88.1973083
(estimated)
Elevation: 40 ft. / 12 m (estimated)
Variation: 00E (1995)
From city: 2 miles SE of IRVINGTON, AL
Time zone: UTC -5 (UTC -6 during Standard Time)
Zip code: 36544

Airport Operations

Airport use: Private use. Permission required prior to landing
Activation date: 02/1999
Control tower: no
ARTCC: HOUSTON CENTER
FSS: ANNISTON FLIGHT SERVICE STATION
Attendance: UNATTENDED
Wind indicator: yes
Segmented circle: no

Airport Communications

WX ASOS at BFM (10 nm NE): PHONE 251-431-6762
WX ASOS at MOB (12 nm N): 124.75 (251-607-0469)
WX AWOS-3PT at CQF (17 nm E): 118.425 (251-928-3242)
WX ASOS at PQL (17 nm W): 135.175 (228-474-2836)

Nearby radio navigation aids

VOR radial/distance  VOR name  Freq  Var
BFMr221/10.3BROOKLEY VORTAC112.8004E
SJIr144/16.3SEMMES VORTAC115.3005E
GCVr153/39.3GREENE COUNTY VORTAC115.7005E

 
NDB name  Hdg/Dist  Freq  Var  ID
WISLE162/17.024801WMOB -- --- -...

Airport Services

Runway Information

Runway 18/36

Dimensions: 2100 x 150 ft. / 640 x 46 m
Surface: turf, in good condition
RUNWAY 18  RUNWAY 36
Traffic pattern: leftleft
Displaced threshold: 368 ft.391 ft.
Obstructions: 18 ft. road, 56 ft. from runway73 ft. trees, 565 ft. from runway

Airport Ownership and Management from official FAA records

Ownership: Privately-owned
Owner: CHARLES J. GALER
6681 HALF MILE RD
IRVINGTON, AL 36544
Phone 251-767-4076
Manager: CHARLES J. GALER
6681 HALF MILE RD.
IRVINGTON, AL 36544
Phone 251-767-4076
LAURA GALER - 251-377-4819.

Airport Operational Statistics

Aircraft based on the field: 2
Single engine airplanes: 2
    

Additional Remarks

FOR CD CTC MOBILE APCH AT 251-662-6236, WHEN APCH CLSD CTC HOUSTON ARTCC AT 281-230-5622.
FLD MAY BE SOFT AFT HVY RAIN.

Instrument Procedures

There are no published instrument procedures at 2AL6.

Some nearby airports with instrument procedures:

2R5 - St Elmo Airport (4 nm W)
KBFM - Mobile Downtown Airport (10 nm NE)
KMOB - Mobile Regional Airport (12 nm N)
KCQF - H L Sonny Callahan Airport (17 nm E)
KPQL - Trent Lott International Airport (17 nm W)
 
Loc | Ops | Rwys | IFR | FBO | Links
Com | Nav | Svcs | Stats | Notes
Area around 2AL6 (Dale O Galer Aerodrome)
 
Road maps at: MapQuest Bing Google
 
Aerial photo
No photo
 
Sectional chart

 
Airport distance calculator
Flying to Dale O Galer Aerodrome? Find the distance to fly.

From to 2AL6

Sunrise and sunset
Times for 12-Apr-2021
 Local
(UTC-5)
 Zulu
(UTC)
Morning civil twilight06:0511:05
Sunrise06:3011:30
Sunset19:1700:17
Evening civil twilight19:4200:42

Current date and time
Zulu (UTC)  12-Apr-2021 22:10:11
Local (UTC-5)  12-Apr-2021 17:10:11
 
METAR
KBFM 
10nm NE 
122153Z 17011G18KT 10SM CLR 24/13 A2994 RMK AO2 SLP137 T02390128
KMOB 
12nm N 
122156Z 17010KT 10SM FEW010 BKN250 26/08 A2993 RMK AO2 SLP134 FU FEW010 T02560078
KCQF 
17nm E 
122155Z AUTO 18004KT 10SM CLR 23/11 A2994 RMK AO2
KPQL 
17nm W 
122153Z 19005KT 10SM CLR 26/10 A2993 RMK AO2 SLP135 T02560100
TAF
KBFM 
10nm NE 
121728Z 1218/1318 05005KT P6SM SKC FM130300 12003KT P6SM SKC FM131500 10008KT P6SM SKC
KMOB 
12nm N 
121728Z 1218/1318 VRB04KT P6SM FEW250 FM130300 VRB03KT P6SM SKC FM131500 10008KT P6SM SKC
NOTAMs
Click for the latest NOTAMs
NOTAMs are issued by the DoD/FAA and will open in a separate window not controlled by AirNav.

 

 
 

Would you like to see your business listed on this page?

 If your business provides an interesting product or service to pilots, flight crews, aircraft, or users of the Dale O Galer Aerodrome, you should consider listing it here.  To start the listing process, click on the button below
 
Add a business
 

Other Pages about Dale O Galer Aerodrome

Update a link
 
Copyright © AirNav, LLC. All rights reserved. Privacy Policy  Contact